Time;durP1;ratioP1;P1;durP2;ratioP2;P2;SDS_P1;SDS_P2;PMS_P1;PMS_P2;Temp;Humidity;BMP_temperature;BMP_pressure;BME280_temperature;BME280_humidity;BME280_pressure;Samples;Min_cycle;Max_cycle;Signal;HPM_P1;HPM_P2
2023/02/24 00:00:51;;;;;;;23.38;5.82;;;8.20;99.90;;;;;;2040508;29;20484;-74
2023/02/24 00:02:02;;;;;;;26.20;5.93;;;8.20;99.90;;;;;;2038450;29;20164;-73
2023/02/24 00:03:04;;;;;;;;;;;8.20;99.90;;;;;;2043372;28;20019;-74
2023/02/24 00:04:08;;;;;;;19.50;6.07;;;8.10;99.90;;;;;;2038686;29;19934;-74
2023/02/24 00:05:09;;;;;;;20.08;6.03;;;8.10;99.90;;;;;;2037470;29;20062;-74
2023/02/24 00:06:11;;;;;;;22.00;5.38;;;8.10;99.90;;;;;;2042233;28;20514;-74
2023/02/24 00:07:11;;;;;;;20.58;5.80;;;8.10;99.90;;;;;;2045342;28;20059;-74
2023/02/24 00:08:12;;;;;;;26.23;6.55;;;8.10;99.90;;;;;;2044514;28;20019;-74
2023/02/24 00:09:16;;;;;;;21.30;6.30;;;8.20;99.90;;;;;;2045447;28;20027;-74
2023/02/24 00:10:18;;;;;;;22.90;5.68;;;8.10;99.90;;;;;;2034689;29;20028;-73
2023/02/24 00:11:18;;;;;;;25.65;6.53;;;8.10;99.90;;;;;;2036799;29;20578;-74
2023/02/24 00:12:19;;;;;;;25.65;6.25;;;8.10;99.90;;;;;;2045010;28;20498;-74
2023/02/24 00:13:21;;;;;;;22.02;5.70;;;8.20;99.90;;;;;;2045289;29;20042;-73
2023/02/24 00:14:24;;;;;;;23.40;6.90;;;8.20;99.90;;;;;;2044132;28;20019;-74
2023/02/24 00:15:24;;;;;;;21.08;6.40;;;8.20;99.90;;;;;;2045591;28;20031;-73
2023/02/24 00:16:25;;;;;;;28.05;6.32;;;8.20;99.90;;;;;;2045083;28;20102;-74
2023/02/24 00:17:29;;;;;;;22.92;5.63;;;8.20;99.90;;;;;;2046185;28;20027;-74
2023/02/24 00:18:31;;;;;;;18.73;6.32;;;8.20;99.90;;;;;;2043978;29;20030;-73
2023/02/24 00:19:31;;;;;;;21.23;6.30;;;8.20;99.90;;;;;;2045400;28;20031;-74
2023/02/24 00:20:32;;;;;;;16.50;5.93;;;8.20;99.90;;;;;;2044432;28;20166;-74
2023/02/24 00:21:34;;;;;;;21.38;6.40;;;8.20;99.90;;;;;;2044541;28;20063;-74
2023/02/24 00:22:35;;;;;;;20.83;5.95;;;8.20;99.90;;;;;;2045570;28;20131;-73
2023/02/24 00:23:39;;;;;;;18.42;5.63;;;8.20;99.90;;;;;;2036576;29;20658;-74
2023/02/24 00:24:39;;;;;;;14.95;5.28;;;8.20;99.90;;;;;;2036314;29;20420;-73
2023/02/24 00:25:40;;;;;;;21.88;6.65;;;8.20;99.90;;;;;;2044941;28;20046;-73
2023/02/24 00:26:41;;;;;;;20.10;5.18;;;8.20;99.90;;;;;;2044799;28;20070;-74
2023/02/24 00:27:41;;;;;;;17.42;5.28;;;8.20;99.90;;;;;;2046390;28;20042;-73
2023/02/24 00:28:43;;;;;;;25.23;6.03;;;8.20;99.90;;;;;;2034486;29;20062;-73
2023/02/24 00:29:44;;;;;;;18.80;5.70;;;8.20;99.90;;;;;;2035097;29;20024;-74
2023/02/24 00:30:45;;;;;;;26.05;6.53;;;8.30;99.90;;;;;;2043771;28;20677;-73
2023/02/24 00:31:49;;;;;;;20.95;5.63;;;8.20;99.90;;;;;;2044028;28;20554;-73
2023/02/24 00:32:50;;;;;;;22.05;5.13;;;8.30;99.90;;;;;;2043912;28;20031;-74
2023/02/24 00:33:51;;;;;;;19.60;5.43;;;8.30;99.90;;;;;;2044791;28;20027;-73
2023/02/24 00:34:51;;;;;;;22.38;6.00;;;8.30;99.90;;;;;;2043689;28;20034;-74
2023/02/24 00:35:52;;;;;;;19.23;5.82;;;8.30;99.90;;;;;;2045348;28;20034;-73
2023/02/24 00:36:53;;;;;;;19.48;5.88;;;8.30;99.90;;;;;;2043491;28;20039;-73
2023/02/24 00:37:53;;;;;;;21.38;6.13;;;8.30;99.90;;;;;;2044094;28;20400;-73
2023/02/24 00:38:56;;;;;;;17.20;6.10;;;8.30;99.90;;;;;;2044587;28;20062;-74
2023/02/24 00:39:57;;;;;;;17.00;5.38;;;8.30;99.90;;;;;;2042850;28;20063;-74
2023/02/24 00:40:59;;;;;;;18.73;4.95;;;8.30;99.90;;;;;;2044698;28;20056;-73
2023/02/24 00:42:04;;;;;;;17.50;5.53;;;8.30;99.90;;;;;;2043087;28;20078;-73
2023/02/24 00:43:06;;;;;;;18.20;5.72;;;8.30;99.90;;;;;;2044287;28;20027;-74
2023/02/24 00:44:10;;;;;;;18.92;5.35;;;8.30;99.90;;;;;;2043099;28;20087;-73
2023/02/24 00:45:11;;;;;;;17.20;5.43;;;8.30;99.90;;;;;;2043396;28;20664;-74
2023/02/24 00:46:19;;;;;;;16.67;4.60;;;8.30;99.90;;;;;;2043813;29;20062;-73
2023/02/24 00:47:21;;;;;;;16.17;4.93;;;8.30;99.90;;;;;;2045092;28;20102;-74
2023/02/24 00:48:27;;;;;;;19.48;5.97;;;8.30;99.90;;;;;;2045936;28;20019;-73
2023/02/24 00:49:28;;;;;;;27.88;7.18;;;8.40;99.90;;;;;;2044550;28;20038;-74
2023/02/24 00:50:30;;;;;;;26.27;7.05;;;8.30;99.90;;;;;;2044057;28;20036;-73
2023/02/24 00:51:38;;;;;;;18.65;6.38;;;8.30;99.90;;;;;;2043452;28;20035;-74
2023/02/24 00:52:38;;;;;;;21.02;6.20;;;8.30;99.90;;;;;;2043383;28;20173;-73
2023/02/24 00:53:39;;;;;;;21.67;6.85;;;8.30;99.90;;;;;;2045414;28;20039;-73
2023/02/24 00:54:41;;;;;;;23.45;6.43;;;8.30;99.90;;;;;;2044502;28;20039;-73
2023/02/24 00:55:41;;;;;;;22.60;6.40;;;8.30;99.90;;;;;;2043503;28;20035;-74
2023/02/24 00:56:44;;;;;;;17.55;5.75;;;8.20;99.90;;;;;;2045763;28;20094;-74
2023/02/24 00:57:44;;;;;;;21.58;5.95;;;8.20;99.90;;;;;;2042873;28;20027;-73
2023/02/24 00:58:45;;;;;;;27.27;7.47;;;8.20;99.90;;;;;;2044440;28;20039;-73
2023/02/24 00:59:50;;;;;;;24.98;6.28;;;8.20;99.90;;;;;;2044781;28;20064;-73
2023/02/24 01:00:51;;;;;;;33.33;6.80;;;8.20;99.90;;;;;;2043037;28;20035;-73
2023/02/24 01:01:53;;;;;;;27.90;7.22;;;8.10;99.90;;;;;;2043115;28;20027;-73
2023/02/24 01:02:53;;;;;;;26.77;7.28;;;8.10;99.90;;;;;;2046252;28;20083;-74
2023/02/24 01:03:54;;;;;;;28.38;6.45;;;8.10;99.90;;;;;;2044514;28;20115;-74
2023/02/24 01:04:55;;;;;;;28.73;6.65;;;8.00;99.90;;;;;;2045365;28;20715;-74
2023/02/24 01:05:55;;;;;;;23.42;6.00;;;8.00;99.90;;;;;;2044813;28;20023;-74
2023/02/24 01:06:59;;;;;;;32.95;6.93;;;8.00;99.90;;;;;;2044765;28;20372;-74
2023/02/24 01:07:59;;;;;;;27.77;6.50;;;8.00;99.90;;;;;;2044856;28;20031;-73
2023/02/24 01:09:00;;;;;;;25.58;6.95;;;8.00;99.90;;;;;;2043475;28;20103;-73
2023/02/24 01:10:00;;;;;;;24.92;6.55;;;7.90;99.90;;;;;;2041794;29;20031;-73
2023/02/24 01:13:58;;;;;;;25.20;5.70;;;7.80;99.90;;;;;;2049777;28;19909;-73
2023/02/24 01:15:01;;;;;;;26.15;6.50;;;7.70;99.90;;;;;;2050741;28;20051;-73
2023/02/24 01:16:02;;;;;;;29.10;6.88;;;7.80;99.90;;;;;;2049878;28;20126;-73
2023/02/24 01:17:05;;;;;;;25.77;6.20;;;7.80;99.90;;;;;;2045240;28;20043;-73
2023/02/24 01:18:05;;;;;;;20.73;6.20;;;7.80;99.90;;;;;;2043875;28;20078;-73
2023/02/24 01:19:07;;;;;;;20.42;6.47;;;7.80;99.90;;;;;;2043910;28;20101;-74
2023/02/24 01:20:15;;;;;;;22.58;5.53;;;7.80;99.90;;;;;;2044215;28;20019;-73
2023/02/24 01:21:18;;;;;;;28.45;7.28;;;7.80;99.90;;;;;;2043966;28;20024;-73
2023/02/24 01:22:19;;;;;;;30.02;6.55;;;7.80;99.90;;;;;;2044455;29;20134;-74
2023/02/24 01:23:20;;;;;;;24.48;6.22;;;7.80;99.90;;;;;;2044443;28;20023;-74
2023/02/24 01:24:22;;;;;;;30.80;6.53;;;7.80;99.90;;;;;;2044380;28;20059;-73
2023/02/24 01:25:23;;;;;;;29.58;6.80;;;7.80;99.90;;;;;;2037666;29;20024;-73
2023/02/24 01:26:25;;;;;;;18.70;6.07;;;7.90;99.90;;;;;;2029370;29;20028;-73
2023/02/24 01:27:25;;;;;;;32.75;6.60;;;7.90;99.90;;;;;;2034154;28;20419;-74
2023/02/24 01:28:26;;;;;;;22.45;6.93;;;7.90;99.90;;;;;;2045008;28;20078;-74
2023/02/24 01:29:27;;;;;;;24.85;6.20;;;7.90;99.90;;;;;;2045219;28;20024;-73
2023/02/24 01:30:27;;;;;;;23.75;6.43;;;7.90;99.90;;;;;;2043064;28;20035;-74
2023/02/24 01:31:28;;;;;;;21.80;5.97;;;7.90;99.90;;;;;;2043660;28;20651;-74
2023/02/24 01:32:30;;;;;;;28.60;6.55;;;7.80;99.90;;;;;;2042486;28;20135;-73
2023/02/24 01:33:36;;;;;;;33.83;6.40;;;7.90;99.90;;;;;;2043731;28;20506;-74
2023/02/24 01:34:37;;;;;;;24.25;6.53;;;7.80;99.90;;;;;;2045130;28;20036;-73
2023/02/24 01:35:38;;;;;;;20.83;6.15;;;7.80;99.90;;;;;;2044701;28;20171;-74
2023/02/24 01:36:43;;;;;;;23.30;6.40;;;7.80;99.90;;;;;;2035874;29;20094;-73
2023/02/24 01:37:44;;;;;;;20.23;5.30;;;7.80;99.90;;;;;;2029550;29;20028;-73
2023/02/24 01:38:45;;;;;;;24.38;6.60;;;7.80;99.90;;;;;;2028368;29;20068;-73
2023/02/24 01:39:46;;;;;;;22.38;6.82;;;7.80;99.90;;;;;;2035188;29;20100;-73
2023/02/24 01:40:58;;;;;;;26.92;6.53;;;7.80;99.90;;;;;;2045500;28;20134;-73
2023/02/24 01:42:01;;;;;;;30.75;6.65;;;7.80;99.90;;;;;;2045805;28;20400;-74
2023/02/24 01:43:07;;;;;;;29.65;7.05;;;7.80;99.90;;;;;;2045232;28;20525;-73
2023/02/24 01:44:28;;;;;;;25.55;6.22;;;7.80;99.90;;;;;;2044214;28;20028;-73
2023/02/24 01:45:29;;;;;;;24.20;6.55;;;7.70;99.90;;;;;;2037669;29;20022;-74
2023/02/24 01:46:37;;;;;;;30.42;7.00;;;7.70;99.90;;;;;;2037643;29;20032;-74
2023/02/24 01:47:38;;;;;;;19.98;5.43;;;7.70;99.90;;;;;;2041963;28;20041;-73
2023/02/24 01:48:40;;;;;;;20.83;5.45;;;7.70;99.90;;;;;;2035256;29;20115;-74
2023/02/24 01:49:46;;;;;;;28.40;6.90;;;7.70;99.90;;;;;;2034867;29;20032;-73
2023/02/24 01:50:49;;;;;;;23.75;6.03;;;7.70;99.90;;;;;;2044260;29;20031;-74
2023/02/24 01:52:17;;;;;;;26.73;6.65;;;7.70;99.90;;;;;;2043360;28;20031;-74
2023/02/24 01:53:18;;;;;;;25.55;6.07;;;7.70;99.90;;;;;;2041740;28;20035;-73
2023/02/24 01:54:22;;;;;;;24.25;5.45;;;7.70;99.90;;;;;;2042835;28;20505;-74
2023/02/24 01:55:31;;;;;;;28.65;6.57;;;7.70;99.90;;;;;;2043107;28;20024;-73
2023/02/24 01:56:32;;;;;;;24.20;5.50;;;7.70;99.90;;;;;;2044843;28;20030;-74
2023/02/24 01:57:35;;;;;;;21.77;6.70;;;7.70;99.90;;;;;;2044598;28;20020;-74
2023/02/24 01:58:36;;;;;;;23.25;5.22;;;7.70;99.90;;;;;;2044583;28;20030;-73
2023/02/24 01:59:37;;;;;;;29.63;6.97;;;7.70;99.90;;;;;;2046832;28;20110;-73
2023/02/24 02:00:44;;;;;;;18.85;4.95;;;7.70;99.90;;;;;;2045412;28;20050;-74
2023/02/24 02:01:45;;;;;;;26.42;6.45;;;7.70;99.90;;;;;;2047147;28;20023;-73
2023/02/24 02:02:50;;;;;;;26.13;6.95;;;7.70;99.90;;;;;;2037776;29;20047;-73
2023/02/24 02:03:56;;;;;;;22.25;5.97;;;7.70;99.90;;;;;;2028171;29;20048;-74
2023/02/24 02:05:03;;;;;;;23.17;5.18;;;7.60;99.90;;;;;;2036940;29;20031;-74
2023/02/24 02:06:07;;;;;;;21.70;5.10;;;7.60;99.90;;;;;;2046264;28;20023;-73
2023/02/24 02:07:11;;;;;;;22.48;5.40;;;7.60;99.90;;;;;;2044502;28;20061;-74
2023/02/24 02:08:12;;;;;;;19.70;5.70;;;7.60;99.90;;;;;;2045196;28;20265;-73
2023/02/24 02:09:14;;;;;;;25.80;6.15;;;7.70;99.90;;;;;;2044436;28;20051;-74
2023/02/24 02:10:16;;;;;;;24.85;6.15;;;7.70;99.90;;;;;;2045393;28;20028;-74
2023/02/24 02:11:21;;;;;;;21.98;5.43;;;7.60;99.90;;;;;;2045187;28;20079;-73
2023/02/24 02:12:23;;;;;;;24.13;5.28;;;7.70;99.90;;;;;;2045607;28;20020;-74
2023/02/24 02:13:25;;;;;;;25.40;6.15;;;7.60;99.90;;;;;;2044235;28;20030;-74
2023/02/24 02:14:28;;;;;;;31.83;6.22;;;7.70;99.90;;;;;;2038070;29;20032;-74
2023/02/24 02:15:33;;;;;;;17.88;4.72;;;7.60;99.90;;;;;;2032268;29;20516;-74
2023/02/24 02:17:02;;;;;;;24.25;6.00;;;7.60;99.90;;;;;;2038776;29;20063;-73
2023/02/24 02:18:56;;;;;;;18.65;4.47;;;7.60;99.90;;;;;;2013134;29;20516;-73
2023/02/24 02:20:14;;;;;;;24.88;5.97;;;7.50;99.90;;;;;;2031370;28;20050;-73
2023/02/24 02:21:27;;;;;;;20.55;5.35;;;7.50;99.90;;;;;;2046186;28;20537;-73
2023/02/24 02:22:49;;;;;;;17.65;4.75;;;7.50;99.90;;;;;;2046025;28;20027;-74
2023/02/24 02:24:08;;;;;;;19.98;4.68;;;7.50;99.90;;;;;;2045438;28;20024;-73
2023/02/24 02:25:35;;;;;;;21.20;6.15;;;7.50;99.90;;;;;;2037611;29;20074;-73
2023/02/24 02:26:56;;;;;;;23.75;5.10;;;7.50;99.90;;;;;;2042103;28;20068;-73
2023/02/24 02:28:20;;;;;;;21.23;5.95;;;7.50;99.90;;;;;;2045487;28;20506;-73
2023/02/24 02:29:39;;;;;;;15.02;4.55;;;7.50;99.90;;;;;;2045289;28;20036;-73
2023/02/24 02:31:12;;;;;;;23.80;5.53;;;7.50;99.90;;;;;;2044887;28;20077;-73
2023/02/24 02:32:50;;;;;;;20.83;5.00;;;7.40;99.90;;;;;;2044858;28;20024;-73
2023/02/24 02:34:26;;;;;;;21.50;4.78;;;7.40;99.90;;;;;;2046718;28;20034;-73
2023/02/24 02:35:36;;;;;;;20.45;4.60;;;7.40;99.90;;;;;;2045161;28;20360;-74
2023/02/24 02:36:53;;;;;;;17.90;4.68;;;7.30;99.90;;;;;;2045566;28;20022;-73
2023/02/24 02:38:02;;;;;;;21.30;4.45;;;7.30;99.90;;;;;;2046100;28;20034;-74
2023/02/24 02:39:19;;;;;;;19.00;4.70;;;7.40;99.90;;;;;;2043564;28;20093;-73
2023/02/24 02:40:36;;;;;;;31.65;5.95;;;7.40;99.90;;;;;;2043411;28;20051;-73
2023/02/24 02:41:54;;;;;;;16.02;4.72;;;7.40;99.90;;;;;;2039283;29;20039;-73
2023/02/24 02:43:14;;;;;;;20.20;5.97;;;7.40;99.90;;;;;;2039472;29;20110;-73
2023/02/24 02:44:31;;;;;;;21.85;5.53;;;7.40;99.90;;;;;;2045942;28;20038;-73
2023/02/24 02:45:39;;;;;;;25.73;6.05;;;7.30;99.90;;;;;;2045121;28;20035;-73
2023/02/24 02:46:42;;;;;;;19.75;4.72;;;7.30;99.90;;;;;;2046041;28;20035;-74
2023/02/24 02:47:52;;;;;;;18.65;4.72;;;7.30;99.90;;;;;;2043086;28;20125;-73
2023/02/24 02:48:58;;;;;;;20.25;5.07;;;7.40;99.90;;;;;;2045853;29;20042;-73
2023/02/24 02:50:25;;;;;;;11.93;3.90;;;7.30;99.90;;;;;;2036983;29;20030;-73
2023/02/24 02:51:32;;;;;;;23.58;5.25;;;7.30;99.90;;;;;;2040850;28;20209;-74
2023/02/24 02:52:41;;;;;;;23.05;4.78;;;7.30;99.90;;;;;;2044657;28;20031;-73
2023/02/24 02:54:10;;;;;;;13.95;4.00;;;7.30;99.90;;;;;;2045169;28;20027;-74
2023/02/24 02:55:17;;;;;;;20.00;4.30;;;7.30;99.90;;;;;;2036170;29;20098;-73
2023/02/24 02:56:24;;;;;;;19.30;4.63;;;7.30;99.90;;;;;;2033847;29;20047;-73
2023/02/24 02:57:29;;;;;;;18.10;4.72;;;7.30;99.90;;;;;;2040778;29;20020;-73
2023/02/24 02:58:36;;;;;;;15.98;4.25;;;7.30;99.90;;;;;;2045403;28;20046;-73
2023/02/24 02:59:48;;;;;;;18.13;4.30;;;7.30;99.90;;;;;;2036721;29;20074;-73
2023/02/24 03:01:01;;;;;;;13.32;4.53;;;7.30;99.90;;;;;;2037813;29;20036;-73
2023/02/24 03:02:11;;;;;;;15.77;4.32;;;7.30;99.90;;;;;;2044514;29;20027;-73
2023/02/24 03:03:13;;;;;;;15.38;4.20;;;7.30;99.90;;;;;;2046434;28;20110;-73
2023/02/24 03:04:21;;;;;;;19.05;4.57;;;7.30;99.90;;;;;;2045917;28;20074;-74
2023/02/24 03:05:29;;;;;;;21.70;5.88;;;7.20;99.90;;;;;;2045208;28;20023;-73
2023/02/24 03:06:37;;;;;;;19.48;5.53;;;7.20;99.90;;;;;;2045802;28;20027;-74
2023/02/24 03:07:44;;;;;;;18.17;4.80;;;7.30;99.90;;;;;;2044467;28;20085;-74
2023/02/24 03:09:14;;;;;;;18.55;4.15;;;7.20;99.90;;;;;;2044066;28;20039;-73
2023/02/24 03:10:21;;;;;;;17.23;5.28;;;7.30;99.90;;;;;;2034858;29;20028;-73
2023/02/24 03:11:22;;;;;;;14.75;4.80;;;7.20;99.90;;;;;;2037053;29;20036;-73
2023/02/24 03:12:26;;;;;;;17.00;5.00;;;7.20;99.90;;;;;;2036552;29;20024;-74
2023/02/24 03:13:33;;;;;;;16.15;4.50;;;7.20;99.90;;;;;;2036494;28;20020;-74
2023/02/24 03:14:42;;;;;;;18.20;4.90;;;7.20;99.90;;;;;;2044200;28;20046;-73
2023/02/24 03:15:46;;;;;;;22.17;5.20;;;7.20;99.90;;;;;;2045007;28;20084;-73
2023/02/24 03:16:48;;;;;;;16.90;4.95;;;7.20;99.90;;;;;;2044526;28;20118;-73
2023/02/24 03:17:54;;;;;;;17.60;4.10;;;7.10;99.90;;;;;;2044406;28;20035;-73
2023/02/24 03:19:02;;;;;;;11.77;3.65;;;7.20;99.90;;;;;;2044317;28;20036;-73
2023/02/24 03:20:16;;;;;;;9.52;3.80;;;7.20;99.90;;;;;;2044057;28;20023;-74
2023/02/24 03:21:29;;;;;;;16.13;4.78;;;7.10;99.90;;;;;;2043636;28;20094;-73
2023/02/24 03:22:36;;;;;;;14.35;4.38;;;7.10;99.90;;;;;;2044991;28;20050;-73
2023/02/24 03:23:44;;;;;;;14.30;4.32;;;7.10;99.90;;;;;;2044579;28;20027;-74
2023/02/24 03:24:45;;;;;;;16.60;3.85;;;7.10;99.90;;;;;;2044559;28;20019;-73
2023/02/24 03:26:09;;;;;;;18.45;3.85;;;7.00;99.90;;;;;;2034401;29;20032;-73
2023/02/24 03:27:23;;;;;;;16.48;4.13;;;7.00;99.90;;;;;;2032498;29;20040;-73
2023/02/24 03:28:36;;;;;;;19.38;4.55;;;7.00;99.90;;;;;;2037381;29;20030;-74
2023/02/24 03:29:43;;;;;;;12.48;4.13;;;7.00;99.90;;;;;;2044988;28;20026;-73
2023/02/24 03:31:09;;;;;;;15.77;4.28;;;6.90;99.90;;;;;;2044303;28;20020;-73
2023/02/24 03:32:35;;;;;;;12.35;3.88;;;6.90;99.90;;;;;;2043736;28;20241;-73
2023/02/24 03:33:41;;;;;;;16.17;3.80;;;6.90;99.90;;;;;;2035155;29;20034;-73
2023/02/24 03:34:57;;;;;;;15.75;3.30;;;6.90;99.90;;;;;;2037833;29;20027;-73
2023/02/24 03:36:00;;;;;;;13.65;3.88;;;6.90;99.90;;;;;;2036686;29;20461;-74
2023/02/24 03:37:01;;;;;;;15.43;3.88;;;6.80;99.90;;;;;;2036686;29;20153;-73
2023/02/24 03:38:03;;;;;;;13.57;3.95;;;6.80;99.90;;;;;;2045299;28;20023;-73
2023/02/24 03:39:04;;;;;;;13.70;3.55;;;6.80;99.90;;;;;;2045809;28;20032;-73
2023/02/24 03:40:13;;;;;;;17.67;4.82;;;6.90;99.90;;;;;;2044037;28;20019;-73
2023/02/24 03:41:13;;;;;;;16.98;4.75;;;6.90;99.90;;;;;;2036774;29;20102;-73
2023/02/24 03:42:19;;;;;;;15.98;4.15;;;6.80;99.90;;;;;;2037027;29;20070;-74
2023/02/24 03:43:26;;;;;;;16.98;3.63;;;6.90;99.90;;;;;;2044570;28;20027;-74
2023/02/24 03:44:27;;;;;;;13.02;3.17;;;6.90;99.90;;;;;;2044081;28;20038;-74
2023/02/24 03:45:28;;;;;;;21.20;4.15;;;6.90;99.90;;;;;;2044788;28;20022;-73
2023/02/24 03:46:30;;;;;;;19.98;4.45;;;6.90;99.90;;;;;;2043269;28;20031;-73
2023/02/24 03:47:31;;;;;;;16.38;5.13;;;6.90;99.90;;;;;;2035226;29;20020;-74
2023/02/24 03:48:42;;;;;;;19.52;4.93;;;6.90;99.90;;;;;;2036342;29;20653;-73
2023/02/24 03:49:43;;;;;;;24.55;5.95;;;6.90;99.90;;;;;;2042563;28;20042;-73
2023/02/24 03:50:44;;;;;;;9.25;3.53;;;6.80;99.90;;;;;;2040728;28;20030;-73
2023/02/24 03:52:21;;;;;;;15.75;4.07;;;6.80;99.90;;;;;;2042140;28;20027;-73
2023/02/24 03:53:54;;;;;;;15.52;4.43;;;6.80;99.90;;;;;;2021816;29;20649;-73
2023/02/24 03:55:13;;;;;;;16.02;3.97;;;6.80;99.90;;;;;;1996036;29;1041234;-73
2023/02/24 03:56:27;;;;;;;14.77;4.13;;;6.80;99.90;;;;;;2044453;28;20035;-73
2023/02/24 03:58:01;;;;;;;12.18;4.22;;;6.80;99.90;;;;;;2046113;28;20800;-73
2023/02/24 03:59:12;;;;;;;17.83;4.13;;;6.70;99.90;;;;;;2045479;28;20027;-74
2023/02/24 04:00:25;;;;;;;13.65;3.80;;;6.70;99.90;;;;;;2044253;28;20563;-73
2023/02/24 04:01:31;;;;;;;20.67;4.78;;;6.70;99.90;;;;;;2044813;28;20565;-73
2023/02/24 04:02:32;;;;;;;11.13;3.83;;;6.70;99.90;;;;;;2035785;29;20123;-73
2023/02/24 04:04:01;;;;;;;13.98;4.35;;;6.70;99.90;;;;;;2036315;29;20507;-73
2023/02/24 04:05:13;;;;;;;13.48;3.85;;;6.70;99.90;;;;;;2029174;29;20428;-73
2023/02/24 04:06:19;;;;;;;12.15;3.40;;;6.70;99.90;;;;;;2037614;29;20495;-74
2023/02/24 04:07:39;;;;;;;11.40;3.03;;;6.70;99.90;;;;;;2044391;28;20050;-74
2023/02/24 04:09:10;;;;;;;15.52;3.60;;;6.70;99.90;;;;;;2042371;28;20503;-73
2023/02/24 04:10:20;;;;;;;12.18;3.60;;;6.70;99.90;;;;;;2044020;28;20106;-73
2023/02/24 04:11:28;;;;;;;11.75;3.15;;;6.70;99.90;;;;;;2046759;28;20061;-74
2023/02/24 04:12:41;;;;;;;12.52;3.50;;;6.70;99.90;;;;;;2045838;28;20586;-73
2023/02/24 04:14:01;;;;;;;19.73;4.93;;;6.70;99.90;;;;;;2045709;28;20097;-73
2023/02/24 04:15:10;;;;;;;12.17;3.53;;;6.70;99.90;;;;;;2036390;29;20126;-73
2023/02/24 04:16:26;;;;;;;13.77;4.03;;;6.70;99.90;;;;;;2038297;29;20277;-73
2023/02/24 04:17:42;;;;;;;10.82;3.88;;;6.60;99.90;;;;;;2044773;28;20255;-73
2023/02/24 04:18:48;;;;;;;16.35;4.05;;;6.60;99.90;;;;;;2044407;28;20043;-73
2023/02/24 04:19:53;;;;;;;11.68;3.25;;;6.60;99.90;;;;;;2045314;28;20045;-73
2023/02/24 04:20:58;;;;;;;11.00;3.47;;;6.70;99.90;;;;;;2044804;28;20040;-73
2023/02/24 04:21:59;;;;;;;14.80;3.65;;;6.60;99.90;;;;;;2044239;28;20122;-73
2023/02/24 04:23:28;;;;;;;14.13;3.88;;;6.70;99.90;;;;;;2045469;29;20062;-73
2023/02/24 04:24:31;;;;;;;11.55;3.38;;;6.60;99.90;;;;;;2045062;28;20031;-74
2023/02/24 04:25:32;;;;;;;11.35;3.45;;;6.60;99.90;;;;;;2045042;28;20051;-73
2023/02/24 04:26:35;;;;;;;15.93;4.03;;;6.60;99.90;;;;;;2043488;28;20384;-73
2023/02/24 04:27:35;;;;;;;12.18;3.58;;;6.60;99.90;;;;;;2044897;28;20031;-73
2023/02/24 04:28:37;;;;;;;14.80;4.03;;;6.60;99.90;;;;;;2044174;28;20081;-73
2023/02/24 04:29:46;;;;;;;12.25;3.38;;;6.60;99.90;;;;;;2033747;29;20024;-73
2023/02/24 04:30:50;;;;;;;11.32;3.58;;;6.60;99.90;;;;;;2035731;29;20107;-73
2023/02/24 04:31:58;;;;;;;15.50;4.20;;;6.60;99.90;;;;;;2044011;28;20043;-74
2023/02/24 04:32:59;;;;;;;13.52;3.47;;;6.60;99.90;;;;;;2041677;28;20039;-73
2023/02/24 04:34:00;;;;;;;11.00;3.25;;;6.60;99.90;;;;;;2043948;28;20042;-73
2023/02/24 04:35:08;;;;;;;15.35;4.63;;;6.60;99.90;;;;;;2035502;29;20066;-73
2023/02/24 04:36:11;;;;;;;14.05;4.68;;;6.60;99.90;;;;;;2036631;29;20035;-73
2023/02/24 04:37:12;;;;;;;15.93;5.00;;;6.60;99.90;;;;;;2042644;28;20106;-73
2023/02/24 04:38:13;;;;;;;13.88;4.65;;;6.60;99.90;;;;;;2046456;28;20055;-73
2023/02/24 04:39:22;;;;;;;21.92;6.20;;;6.60;99.90;;;;;;2043431;28;20027;-73
2023/02/24 04:40:22;;;;;;;14.48;4.70;;;6.60;99.90;;;;;;2044045;28;20027;-73
2023/02/24 04:41:23;;;;;;;11.45;4.32;;;6.60;99.90;;;;;;2037166;29;20066;-73
2023/02/24 04:42:24;;;;;;;13.45;4.50;;;6.60;99.90;;;;;;2036564;29;20031;-73
2023/02/24 04:43:24;;;;;;;15.20;4.82;;;6.60;99.90;;;;;;2045986;28;20028;-73
2023/02/24 04:44:27;;;;;;;18.35;4.53;;;6.60;99.90;;;;;;2035195;29;20427;-74
2023/02/24 04:45:29;;;;;;;17.55;4.28;;;6.60;99.90;;;;;;2036518;29;20499;-73
2023/02/24 04:46:31;;;;;;;20.70;5.22;;;6.60;99.90;;;;;;2043110;28;20027;-73
2023/02/24 04:47:31;;;;;;;22.52;5.25;;;6.60;99.90;;;;;;2043689;28;20019;-73
2023/02/24 04:48:33;;;;;;;15.10;4.15;;;6.60;99.90;;;;;;2044579;28;20016;-73
2023/02/24 04:49:33;;;;;;;14.48;4.65;;;6.60;99.90;;;;;;2044902;28;20550;-73
2023/02/24 04:50:35;;;;;;;28.13;5.93;;;6.70;99.90;;;;;;2044621;28;20723;-73
2023/02/24 04:51:37;;;;;;;17.05;4.32;;;6.70;99.90;;;;;;2044243;28;20036;-73
2023/02/24 04:52:37;;;;;;;15.10;4.47;;;6.70;99.90;;;;;;2044758;28;20021;-73
2023/02/24 04:53:38;;;;;;;19.80;5.50;;;6.70;99.90;;;;;;2044856;28;20036;-73
2023/02/24 04:54:39;;;;;;;22.23;6.50;;;6.70;99.90;;;;;;2044867;28;20038;-73
2023/02/24 04:55:47;;;;;;;19.70;4.93;;;6.70;99.90;;;;;;2043504;28;20035;-73
2023/02/24 04:56:49;;;;;;;14.05;4.63;;;6.60;99.90;;;;;;2044481;28;20063;-73
2023/02/24 04:57:56;;;;;;;16.63;4.25;;;6.70;99.90;;;;;;2045297;28;20545;-73
2023/02/24 04:58:56;;;;;;;14.23;5.63;;;6.60;99.90;;;;;;2044041;28;20055;-73
2023/02/24 04:59:57;;;;;;;17.25;4.47;;;6.70;99.90;;;;;;2043741;28;20746;-73
2023/02/24 05:00:58;;;;;;;15.82;5.15;;;6.60;99.90;;;;;;2045117;28;20468;-73
2023/02/24 05:02:02;;;;;;;19.77;4.70;;;6.70;99.90;;;;;;2035907;29;20623;-74
2023/02/24 05:03:04;;;;;;;21.65;5.53;;;6.70;99.90;;;;;;2037316;29;20320;-74
2023/02/24 05:04:07;;;;;;;15.48;4.93;;;6.70;99.90;;;;;;2044844;28;20099;-73
2023/02/24 05:05:07;;;;;;;17.50;4.68;;;6.70;99.90;;;;;;2044123;28;20021;-73
2023/02/24 05:06:14;;;;;;;19.67;6.07;;;6.70;99.90;;;;;;2046066;28;20057;-73
2023/02/24 05:07:15;;;;;;;16.85;5.07;;;6.70;99.90;;;;;;2046010;28;20023;-73
2023/02/24 05:08:16;;;;;;;20.38;5.63;;;6.70;99.90;;;;;;2044970;28;20083;-73
2023/02/24 05:09:17;;;;;;;23.80;5.85;;;6.70;99.90;;;;;;2045528;28;20079;-73
2023/02/24 05:10:18;;;;;;;22.48;5.82;;;6.70;99.90;;;;;;2043582;28;20023;-73
2023/02/24 05:11:19;;;;;;;25.10;5.50;;;6.70;99.90;;;;;;2044019;28;20034;-73
2023/02/24 05:12:20;;;;;;;18.60;4.82;;;6.70;99.90;;;;;;2045078;28;20023;-73
2023/02/24 05:13:26;;;;;;;23.73;5.70;;;6.70;99.90;;;;;;2043591;28;20051;-73
2023/02/24 05:14:26;;;;;;;17.08;4.82;;;6.70;99.90;;;;;;2045072;28;20034;-73
2023/02/24 05:15:31;;;;;;;18.77;5.60;;;6.70;99.90;;;;;;2044216;28;20030;-73
2023/02/24 05:16:31;;;;;;;23.23;6.13;;;6.70;99.90;;;;;;2043814;28;20035;-73
2023/02/24 05:17:32;;;;;;;19.52;5.57;;;6.70;99.90;;;;;;2043905;28;20123;-74
2023/02/24 05:18:35;;;;;;;23.70;5.10;;;6.70;99.90;;;;;;2044255;28;20039;-73
2023/02/24 05:22:16;;;;;;;17.38;4.93;;;6.70;99.90;;;;;;2044054;28;20024;-73
2023/02/24 05:23:17;;;;;;;22.50;5.55;;;6.70;99.90;;;;;;2045275;28;20467;-73
2023/02/24 05:24:17;;;;;;;14.45;4.18;;;6.70;99.90;;;;;;2044485;28;20378;-73
2023/02/24 05:25:19;;;;;;;19.50;5.22;;;6.70;99.90;;;;;;2044362;28;20019;-73
2023/02/24 05:26:24;;;;;;;20.27;5.85;;;6.70;99.90;;;;;;2043547;28;20043;-73
2023/02/24 05:27:26;;;;;;;21.30;5.93;;;6.70;99.90;;;;;;2044741;28;20023;-73
2023/02/24 05:28:30;;;;;;;15.10;5.30;;;6.70;99.90;;;;;;2036326;29;20032;-73
2023/02/24 05:29:33;;;;;;;17.75;5.30;;;6.70;99.90;;;;;;2036944;29;20027;-73
2023/02/24 05:30:34;;;;;;;27.65;5.35;;;6.70;99.90;;;;;;2045730;28;20016;-73
2023/02/24 05:31:36;;;;;;;20.98;5.60;;;6.70;99.90;;;;;;2043619;28;20055;-74
2023/02/24 05:32:37;;;;;;;18.00;4.97;;;6.70;99.90;;;;;;2042715;28;20031;-74
2023/02/24 05:33:38;;;;;;;22.25;5.88;;;6.70;99.90;;;;;;2036615;29;20023;-74
2023/02/24 05:34:38;;;;;;;17.38;4.82;;;6.60;99.90;;;;;;2037407;29;20024;-74
2023/02/24 05:35:39;;;;;;;18.95;5.60;;;6.70;99.90;;;;;;2044052;28;20038;-73
2023/02/24 05:36:40;;;;;;;17.20;5.40;;;6.70;99.90;;;;;;2039366;29;20032;-73
2023/02/24 05:37:40;;;;;;;15.98;4.90;;;6.60;99.90;;;;;;2037310;29;20518;-74
2023/02/24 05:38:42;;;;;;;18.98;5.15;;;6.60;99.90;;;;;;2043550;28;20451;-73
2023/02/24 05:39:43;;;;;;;20.73;4.60;;;6.60;99.90;;;;;;2034167;29;20082;-74
2023/02/24 05:40:46;;;;;;;16.40;5.18;;;6.70;99.90;;;;;;2028315;29;20032;-74
2023/02/24 05:41:48;;;;;;;17.80;4.90;;;6.70;99.90;;;;;;2038269;29;20478;-74
2023/02/24 05:42:50;;;;;;;19.65;5.55;;;6.70;99.90;;;;;;2044109;28;20024;-73
2023/02/24 05:43:57;;;;;;;21.05;6.15;;;6.70;99.90;;;;;;2044091;28;20414;-73
2023/02/24 05:44:57;;;;;;;21.77;5.97;;;6.70;99.90;;;;;;2043895;28;20034;-73
2023/02/24 05:46:05;;;;;;;13.30;5.03;;;6.70;99.90;;;;;;2044362;28;20043;-73
2023/02/24 05:47:06;;;;;;;19.08;4.70;;;6.70;99.90;;;;;;2043100;28;20675;-73
2023/02/24 05:48:07;;;;;;;18.30;6.07;;;6.70;99.90;;;;;;2043927;28;20660;-73
2023/02/24 05:49:22;;;;;;;25.58;6.53;;;6.70;99.90;;;;;;2044551;28;20454;-73
2023/02/24 05:50:25;;;;;;;21.48;6.25;;;6.70;99.90;;;;;;2034918;29;20020;-74